createdAt,value
2017-11-08T00:01:05.041Z,91.71
2017-11-08T00:03:32.597Z,91.81
2017-11-08T00:06:00.083Z,92.01
2017-11-08T00:08:27.618Z,92.29
2017-11-08T00:10:55.119Z,92.42
2017-11-08T00:13:22.609Z,92.45
2017-11-08T00:15:51.935Z,92.43
2017-11-08T00:18:19.489Z,92.36
2017-11-08T00:20:46.982Z,92.45
2017-11-08T00:23:14.472Z,92.32
2017-11-08T00:25:42.001Z,92.31
2017-11-08T00:28:09.520Z,92.38
2017-11-08T00:30:37.017Z,92.43
2017-11-08T00:33:04.537Z,92.34
2017-11-08T00:35:32.017Z,92.27
2017-11-08T00:37:59.577Z,91.84
2017-11-08T00:40:27.119Z,91.54
2017-11-08T00:42:54.603Z,91.38
2017-11-08T00:45:22.097Z,91.49
2017-11-08T00:47:49.630Z,91.60
2017-11-08T00:50:17.124Z,91.75
2017-11-08T00:52:44.613Z,91.50
2017-11-08T00:55:12.153Z,91.82
2017-11-08T00:57:45.272Z,91.65
2017-11-08T01:00:15.304Z,91.90
2017-11-08T01:02:42.795Z,92.20
2017-11-08T01:05:10.285Z,92.48
2017-11-08T01:07:37.943Z,92.58
2017-11-08T01:10:05.435Z,92.67
2017-11-08T01:12:32.925Z,92.68
2017-11-08T01:15:00.464Z,92.80
2017-11-08T01:17:27.960Z,93.24
2017-11-08T01:19:55.452Z,93.26
2017-11-08T01:22:22.968Z,93.42
2017-11-08T01:24:50.461Z,93.34
2017-11-08T01:27:18.009Z,93.56
2017-11-08T01:29:45.507Z,93.64
2017-11-08T01:32:13.003Z,93.89
2017-11-08T01:34:40.531Z,93.92
2017-11-08T01:37:13.748Z,93.90
2017-11-08T01:39:41.263Z,93.99
2017-11-08T01:42:10.582Z,94.04
2017-11-08T01:44:43.848Z,94.29
2017-11-08T01:47:11.390Z,94.28
2017-11-08T01:49:38.888Z,94.33
2017-11-08T01:52:23.048Z,94.46
2017-11-08T01:54:50.532Z,94.50
2017-11-08T01:57:18.023Z,94.46
2017-11-08T01:59:45.547Z,94.37
2017-11-08T02:02:13.039Z,94.45
2017-11-08T02:04:40.583Z,94.43
2017-11-08T02:07:08.143Z,94.52
2017-11-08T02:09:35.637Z,94.63
2017-11-08T02:12:03.262Z,94.81
2017-11-08T02:14:30.753Z,94.80
2017-11-08T02:16:58.240Z,94.82
2017-11-08T02:19:25.785Z,94.80
2017-11-08T02:21:53.275Z,94.89
2017-11-08T02:24:20.767Z,94.98
2017-11-08T02:29:44.516Z,95.14
2017-11-08T02:32:14.990Z,95.12
2017-11-08T02:34:42.488Z,95.18
2017-11-08T02:37:09.992Z,95.30
2017-11-08T02:39:37.500Z,95.36
2017-11-08T02:42:05.727Z,95.45
2017-11-08T02:44:33.219Z,95.49
2017-11-08T02:47:00.856Z,95.49
2017-11-08T02:49:28.343Z,95.54
2017-11-08T02:51:55.856Z,95.54
2017-11-08T02:54:24.164Z,95.52
2017-11-08T02:56:51.683Z,95.49
2017-11-08T02:59:19.248Z,95.56
2017-11-08T03:01:46.800Z,95.70
2017-11-08T03:04:14.291Z,95.61
2017-11-08T03:06:41.788Z,95.62
2017-11-08T03:09:09.326Z,95.51
2017-11-08T03:11:36.817Z,95.51
2017-11-08T03:14:04.320Z,95.57
2017-11-08T03:16:31.836Z,95.62
2017-11-08T03:18:59.328Z,95.62
2017-11-08T03:21:26.817Z,95.73
2017-11-08T03:23:54.411Z,95.76
2017-11-08T03:26:21.907Z,95.81
2017-11-08T03:28:49.437Z,95.76
2017-11-08T03:31:16.929Z,95.71
2017-11-08T03:33:44.492Z,95.69
2017-11-08T03:36:12.149Z,95.75
2017-11-08T03:38:39.643Z,95.81
2017-11-08T03:41:07.166Z,95.83
2017-11-08T03:43:34.690Z,95.89
2017-11-08T03:46:02.261Z,95.86
2017-11-08T03:48:29.772Z,95.73
2017-11-08T03:50:57.264Z,95.60
2017-11-08T03:53:24.843Z,95.41
2017-11-08T03:55:52.340Z,95.33
2017-11-08T03:58:19.831Z,95.13
2017-11-08T04:00:47.355Z,94.84
2017-11-08T04:03:14.892Z,94.53
2017-11-08T04:05:42.391Z,94.22
2017-11-08T04:08:09.889Z,93.98
2017-11-08T04:10:37.438Z,93.70
2017-11-08T04:13:04.941Z,93.54
2017-11-08T04:15:32.431Z,93.33
2017-11-08T04:18:00.008Z,93.27
2017-11-08T04:20:27.496Z,93.25
2017-11-08T04:22:54.985Z,93.18
2017-11-08T04:25:22.561Z,93.22
2017-11-08T04:27:50.053Z,93.24
2017-11-08T04:30:17.549Z,93.22
2017-11-08T04:32:45.179Z,93.17
2017-11-08T04:35:12.664Z,93.02
2017-11-08T04:37:40.191Z,92.87
2017-11-08T04:40:07.855Z,92.69
2017-11-08T04:42:40.217Z,92.47
2017-11-08T04:45:07.740Z,92.60
2017-11-08T04:47:35.227Z,92.34
2017-11-08T04:50:02.804Z,92.10
2017-11-08T04:52:30.356Z,91.86
2017-11-08T04:54:57.852Z,91.70
2017-11-08T04:57:25.339Z,91.75
2017-11-08T04:59:52.860Z,91.88
2017-11-08T05:02:20.355Z,91.91
2017-11-08T05:04:47.851Z,91.96
2017-11-08T05:07:15.408Z,91.98
2017-11-08T05:09:42.901Z,91.82
2017-11-08T05:12:10.391Z,91.53
2017-11-08T05:14:37.930Z,91.09
2017-11-08T05:17:05.439Z,91.03
2017-11-08T05:19:32.932Z,91.01
2017-11-08T05:22:00.456Z,90.93
2017-11-08T05:24:28.015Z,90.91
2017-11-08T05:26:55.677Z,91.17
2017-11-08T05:29:23.176Z,91.21
2017-11-08T05:31:51.193Z,91.03
2017-11-08T05:34:18.872Z,91.14
2017-11-08T05:36:46.435Z,91.19
2017-11-08T05:39:13.984Z,91.21
2017-11-08T05:41:41.512Z,91.62
2017-11-08T05:44:09.108Z,91.51
2017-11-08T05:46:36.621Z,91.51
2017-11-08T05:49:04.268Z,91.64
2017-11-08T05:51:31.763Z,91.58
2017-11-08T05:53:59.251Z,91.62
2017-11-08T05:56:26.911Z,91.40
2017-11-08T05:58:54.411Z,91.54
2017-11-08T06:01:21.906Z,91.32
2017-11-08T06:03:49.479Z,90.91
2017-11-08T06:06:16.970Z,90.80
2017-11-08T06:08:44.467Z,90.91
2017-11-08T06:11:12.073Z,91.09
2017-11-08T06:13:39.608Z,91.17
2017-11-08T06:16:07.184Z,91.47
2017-11-08T06:18:34.832Z,91.46
2017-11-08T06:21:02.396Z,91.62
2017-11-08T06:23:29.891Z,91.64
2017-11-08T06:25:57.417Z,91.77
2017-11-08T06:28:24.912Z,91.71
2017-11-08T06:30:52.408Z,91.66
2017-11-08T06:33:20.011Z,91.42
2017-11-08T06:35:47.499Z,91.24
2017-11-08T06:38:15.023Z,91.12
2017-11-08T06:40:42.512Z,90.84
2017-11-08T06:43:10.013Z,90.86
2017-11-08T06:45:37.600Z,91.00
2017-11-08T06:48:05.092Z,91.02
2017-11-08T06:50:33.420Z,91.06
2017-11-08T06:53:01.797Z,91.28
2017-11-08T06:55:30.063Z,91.36
2017-11-08T06:57:57.625Z,91.33
2017-11-08T07:00:25.121Z,91.46
2017-11-08T07:02:52.607Z,90.91
2017-11-08T07:05:20.300Z,90.78
2017-11-08T07:07:47.792Z,90.31
2017-11-08T07:10:15.293Z,90.20
2017-11-08T07:12:42.836Z,89.76
2017-11-08T07:15:10.333Z,89.26
2017-11-08T07:17:37.828Z,88.72
2017-11-08T07:20:05.335Z,88.55
2017-11-08T07:22:32.920Z,88.35
2017-11-08T07:25:00.460Z,88.11
2017-11-08T07:27:28.032Z,87.63
2017-11-08T07:29:55.592Z,88.10
2017-11-08T07:32:23.272Z,87.95
2017-11-08T07:34:50.816Z,88.07
2017-11-08T07:37:18.314Z,87.62
2017-11-08T07:39:45.832Z,87.69
2017-11-08T07:42:13.354Z,86.83
2017-11-08T07:44:40.943Z,85.93
2017-11-08T07:47:08.431Z,85.39
2017-11-08T07:49:36.071Z,84.35
2017-11-08T07:52:10.286Z,83.56
2017-11-08T07:54:37.835Z,82.81
2017-11-08T07:57:05.328Z,82.36
2017-11-08T07:59:38.684Z,81.42
2017-11-08T08:02:06.260Z,80.95
2017-11-08T08:04:33.813Z,79.75
2017-11-08T08:07:01.328Z,79.72
2017-11-08T08:09:45.515Z,79.25
2017-11-08T08:12:13.032Z,78.98
2017-11-08T08:14:40.556Z,78.26
2017-11-08T08:17:08.044Z,78.56
2017-11-08T08:19:36.675Z,77.53
2017-11-08T08:22:04.167Z,77.71
2017-11-08T08:24:31.648Z,77.36
2017-11-08T08:27:04.764Z,76.83
2017-11-08T08:29:32.319Z,76.99
2017-11-08T08:31:59.808Z,76.10
2017-11-08T08:34:27.338Z,76.05
2017-11-08T08:36:54.833Z,75.82
2017-11-08T08:39:22.334Z,75.23
2017-11-08T08:41:49.864Z,75.05
2017-11-08T08:44:17.407Z,75.07
2017-11-08T08:46:44.905Z,74.20
2017-11-08T08:49:12.643Z,75.25
2017-11-08T08:51:40.132Z,74.71
2017-11-08T08:54:07.633Z,74.86
2017-11-08T08:56:35.180Z,74.47
2017-11-08T08:59:02.681Z,74.72
2017-11-08T09:01:30.172Z,75.25
2017-11-08T09:03:57.732Z,75.23
2017-11-08T09:06:25.328Z,75.53
2017-11-08T09:08:52.820Z,75.10
2017-11-08T09:11:20.343Z,75.42
2017-11-08T09:13:47.895Z,75.49
2017-11-08T09:16:15.396Z,75.82
2017-11-08T09:18:42.911Z,75.42
2017-11-08T09:21:10.405Z,75.79
2017-11-08T09:23:38.847Z,75.66
2017-11-08T09:26:06.336Z,74.84
2017-11-08T09:28:33.825Z,73.92
2017-11-08T09:31:01.427Z,73.98
2017-11-08T09:33:29.079Z,73.68
2017-11-08T09:35:56.568Z,73.27
2017-11-08T09:38:24.105Z,72.63
2017-11-08T09:40:51.609Z,72.24
2017-11-08T09:43:21.919Z,72.17
2017-11-08T09:45:49.435Z,71.50
2017-11-08T09:48:16.947Z,71.32
2017-11-08T09:50:44.484Z,71.09
2017-11-08T09:53:12.023Z,71.31
2017-11-08T09:55:39.529Z,71.57
2017-11-08T09:58:08.933Z,71.46
2017-11-08T10:00:36.469Z,71.35
2017-11-08T10:03:03.958Z,71.36
2017-11-08T10:05:31.452Z,71.69
2017-11-08T10:07:58.984Z,71.73
2017-11-08T10:10:30.305Z,72.33
2017-11-08T10:13:03.426Z,72.42
2017-11-08T10:15:30.917Z,72.17
2017-11-08T10:17:58.415Z,72.67
2017-11-08T10:20:25.996Z,71.92
2017-11-08T10:22:53.481Z,71.89
2017-11-08T10:25:20.968Z,71.52
2017-11-08T10:27:48.503Z,71.42
2017-11-08T10:30:16.083Z,71.38
2017-11-08T10:32:43.572Z,71.91
2017-11-08T10:35:11.075Z,72.65
2017-11-08T10:37:38.635Z,72.46
2017-11-08T10:40:06.124Z,71.68
2017-11-08T10:42:33.586Z,71.32
2017-11-08T10:45:01.121Z,71.51
2017-11-08T10:47:28.616Z,71.00
2017-11-08T10:49:56.117Z,70.31
2017-11-08T10:52:23.644Z,70.88
2017-11-08T10:54:51.134Z,71.76
2017-11-08T10:57:18.675Z,72.33
2017-11-08T10:59:51.224Z,72.47
2017-11-08T11:02:19.423Z,72.10
2017-11-08T11:04:47.710Z,71.23
2017-11-08T11:07:15.250Z,70.90
2017-11-08T11:09:42.741Z,70.72
2017-11-08T11:12:10.240Z,70.75
2017-11-08T11:14:37.765Z,70.33
2017-11-08T11:17:05.257Z,70.76
2017-11-08T11:19:32.852Z,71.15
2017-11-08T11:22:02.143Z,71.05
2017-11-08T11:24:33.532Z,71.13
2017-11-08T11:27:07.413Z,70.55
2017-11-08T11:29:34.903Z,70.38
2017-11-08T11:32:02.528Z,70.22
2017-11-08T11:34:30.028Z,69.83
2017-11-08T11:36:57.523Z,70.12
2017-11-08T11:39:25.112Z,70.32
2017-11-08T11:41:52.601Z,71.38
2017-11-08T11:44:20.171Z,71.64
2017-11-08T11:46:47.828Z,72.26
2017-11-08T11:49:15.318Z,72.06
2017-11-08T11:51:42.910Z,71.94
2017-11-08T11:54:10.469Z,72.35
2017-11-08T12:12:29.585Z,72.26
2017-11-08T12:14:57.082Z,72.53
2017-11-08T12:17:24.578Z,72.58
2017-11-08T12:19:52.319Z,72.74
2017-11-08T12:22:19.816Z,72.57
2017-11-08T12:24:47.316Z,71.98
2017-11-08T12:27:14.836Z,72.01
2017-11-08T12:29:42.325Z,71.83
2017-11-08T12:32:09.904Z,71.11
2017-11-08T12:34:39.416Z,71.83
2017-11-08T12:37:06.973Z,71.91
2017-11-08T12:39:34.466Z,71.49
2017-11-08T12:42:03.920Z,71.21
2017-11-08T12:47:34.789Z,71.66
2017-11-08T12:50:02.292Z,72.43
2017-11-08T12:52:29.789Z,72.64
2017-11-08T12:54:57.340Z,72.08
2017-11-08T12:57:24.832Z,71.42
2017-11-08T12:59:52.323Z,71.85
2017-11-08T13:02:20.046Z,72.41
2017-11-08T13:04:47.543Z,72.72
2017-11-08T13:07:15.028Z,72.24
2017-11-08T13:09:42.563Z,71.79
2017-11-08T13:12:10.061Z,71.95
2017-11-08T13:14:37.560Z,71.34
2017-11-08T13:17:05.081Z,71.84
2017-11-08T13:19:32.560Z,72.14
2017-11-08T13:22:00.116Z,71.86
2017-11-08T13:24:27.649Z,71.65
2017-11-08T13:26:55.136Z,71.42
2017-11-08T13:29:22.629Z,71.89
2017-11-08T13:31:50.164Z,72.22
2017-11-08T13:34:17.653Z,72.74
2017-11-08T13:36:45.368Z,72.63
2017-11-08T13:39:12.857Z,72.68
2017-11-08T13:41:40.386Z,72.96
2017-11-08T13:44:07.900Z,72.67
2017-11-08T13:46:35.504Z,72.65
2017-11-08T13:49:03.038Z,72.45
2017-11-08T13:51:30.534Z,72.72
2017-11-08T13:53:58.079Z,72.86
2017-11-08T13:56:25.630Z,73.14
2017-11-08T13:58:53.127Z,72.90
2017-11-08T14:01:20.633Z,73.10
2017-11-08T14:03:48.181Z,73.28
2017-11-08T14:06:15.677Z,73.30
2017-11-08T14:08:43.168Z,74.27
2017-11-08T14:11:10.891Z,74.58
2017-11-08T14:13:38.471Z,74.76
2017-11-08T14:16:05.966Z,74.84
2017-11-08T14:18:33.501Z,75.06
2017-11-08T14:21:00.992Z,75.56
2017-11-08T14:23:28.481Z,75.82
2017-11-08T14:25:55.996Z,75.88
2017-11-08T14:28:23.487Z,75.98
2017-11-08T14:30:50.983Z,76.03
2017-11-08T14:33:18.626Z,76.15
2017-11-08T14:35:46.116Z,76.51
2017-11-08T14:38:13.608Z,76.79
2017-11-08T14:40:41.132Z,76.23
2017-11-08T14:43:08.621Z,76.41
2017-11-08T14:45:36.121Z,76.34
2017-11-08T14:48:03.661Z,76.53
2017-11-08T14:50:31.149Z,76.60
2017-11-08T14:53:04.220Z,76.56
2017-11-08T14:55:31.719Z,76.86
2017-11-08T14:57:59.242Z,77.30
2017-11-08T15:00:26.777Z,77.48
2017-11-08T15:02:54.348Z,77.58
2017-11-08T15:05:21.914Z,77.53
2017-11-08T15:07:49.472Z,77.52
2017-11-08T15:10:16.972Z,77.06
2017-11-08T15:12:45.265Z,77.24
2017-11-08T15:15:15.577Z,77.61
2017-11-08T15:17:44.931Z,77.80
2017-11-08T15:20:18.154Z,77.50
2017-11-08T15:22:45.645Z,77.66
2017-11-08T15:25:13.147Z,77.59
2017-11-08T15:27:40.801Z,77.90
2017-11-08T15:30:08.298Z,77.87
2017-11-08T15:32:36.704Z,77.83
2017-11-08T15:35:04.347Z,77.95
2017-11-08T15:37:31.836Z,78.13
2017-11-08T15:39:59.325Z,77.92
2017-11-08T15:42:26.852Z,77.95
2017-11-08T15:44:54.341Z,78.00
2017-11-08T15:47:21.834Z,78.26
2017-11-08T15:49:49.377Z,78.28
2017-11-08T15:52:16.870Z,78.29
2017-11-08T15:54:44.363Z,78.30
2017-11-08T15:57:11.888Z,78.49
2017-11-08T15:59:39.378Z,78.50
2017-11-08T16:02:06.880Z,78.83
2017-11-08T16:04:34.411Z,78.62
2017-11-08T16:07:01.956Z,78.52
2017-11-08T16:09:29.521Z,78.69
2017-11-08T16:11:57.056Z,78.88
2017-11-08T16:14:24.546Z,79.13
2017-11-08T16:16:52.045Z,79.00
2017-11-08T16:19:19.585Z,78.88
2017-11-08T16:21:47.127Z,78.75
2017-11-08T16:24:16.425Z,78.93
2017-11-08T16:26:43.954Z,79.29
2017-11-08T16:29:11.547Z,79.18
2017-11-08T16:31:39.074Z,79.24
2017-11-08T16:34:06.565Z,78.88
2017-11-08T16:36:34.052Z,78.59
2017-11-08T16:39:01.659Z,78.43
2017-11-08T16:41:29.148Z,78.47
2017-11-08T16:43:56.648Z,78.27
2017-11-08T16:46:24.285Z,78.59
2017-11-08T16:48:51.798Z,78.87
2017-11-08T16:51:19.284Z,78.98
2017-11-08T16:53:46.815Z,79.33
2017-11-08T16:56:14.310Z,78.97
2017-11-08T16:58:41.846Z,79.03
2017-11-08T17:01:09.333Z,79.33
2017-11-08T17:03:36.830Z,78.95
2017-11-08T17:06:04.358Z,79.20
2017-11-08T17:08:31.849Z,79.31
2017-11-08T17:10:59.341Z,79.24
2017-11-08T17:13:26.861Z,79.34
2017-11-08T17:15:54.356Z,79.71
2017-11-08T17:18:21.844Z,79.74
2017-11-08T17:20:49.366Z,79.31
2017-11-08T17:23:16.913Z,79.44
2017-11-08T17:25:44.404Z,79.10
2017-11-08T17:28:11.963Z,79.07
2017-11-08T17:30:39.481Z,79.59
2017-11-08T17:33:06.973Z,79.41
2017-11-08T17:35:34.493Z,79.30
2017-11-08T17:38:01.992Z,79.42
2017-11-08T17:40:29.484Z,79.66
2017-11-08T17:42:57.073Z,79.54
2017-11-08T17:45:24.646Z,79.53
2017-11-08T17:47:52.136Z,79.59
2017-11-08T17:50:19.753Z,79.69
2017-11-08T17:52:47.255Z,79.58
2017-11-08T17:55:14.744Z,79.54
2017-11-08T17:57:42.273Z,79.64
2017-11-08T18:00:09.760Z,79.58
2017-11-08T18:02:37.349Z,79.84
2017-11-08T18:05:04.873Z,79.46
2017-11-08T18:07:32.374Z,78.58
2017-11-08T18:09:59.868Z,78.98
2017-11-08T18:12:27.477Z,79.48
2017-11-08T18:14:54.972Z,79.60
2017-11-08T18:17:22.515Z,79.78
2017-11-08T18:19:50.007Z,79.97
2017-11-08T18:22:17.610Z,80.12
2017-11-08T18:24:45.159Z,80.34
2017-11-08T18:27:12.736Z,79.86
2017-11-08T18:29:40.224Z,79.85
2017-11-08T18:32:07.924Z,79.93
2017-11-08T18:34:35.419Z,80.41
2017-11-08T18:37:02.990Z,80.84
2017-11-08T18:39:30.500Z,80.86
2017-11-08T18:41:58.102Z,80.49
2017-11-08T18:44:25.600Z,80.47
2017-11-08T18:46:53.092Z,80.01
2017-11-08T18:49:20.627Z,79.86
2017-11-08T18:51:48.229Z,79.55
2017-11-08T18:54:15.722Z,79.34
2017-11-08T18:56:43.266Z,79.32
2017-11-08T18:59:10.766Z,79.79
2017-11-08T19:01:38.333Z,79.46
2017-11-08T19:04:05.862Z,79.36
2017-11-08T19:06:33.410Z,79.47
2017-11-08T19:09:00.941Z,79.28
2017-11-08T19:11:28.514Z,79.56
2017-11-08T19:13:56.034Z,79.86
2017-11-08T19:16:23.528Z,80.11
2017-11-08T19:18:51.076Z,80.19
2017-11-08T19:21:18.595Z,79.79
2017-11-08T19:23:46.126Z,79.61
2017-11-08T19:26:13.624Z,79.50
2017-11-08T19:28:41.124Z,79.89
2017-11-08T19:31:08.669Z,79.72
2017-11-08T19:33:36.169Z,79.09
2017-11-08T19:36:03.671Z,79.19
2017-11-08T19:38:31.198Z,79.57
2017-11-08T19:40:58.693Z,79.33
2017-11-08T19:43:26.271Z,79.26
2017-11-08T19:45:53.806Z,79.52
2017-11-08T19:48:21.378Z,79.37
2017-11-08T19:50:48.869Z,79.70
2017-11-08T19:53:16.485Z,79.53
2017-11-08T19:55:43.993Z,79.90
2017-11-08T19:58:11.518Z,80.20
2017-11-08T20:00:39.140Z,79.71
2017-11-08T20:03:06.737Z,79.78
2017-11-08T20:05:34.336Z,79.79
2017-11-08T20:08:01.909Z,79.71
2017-11-08T20:10:29.435Z,80.11
2017-11-08T20:12:56.938Z,79.80
2017-11-08T20:15:24.485Z,80.05
2017-11-08T20:17:52.104Z,80.30
2017-11-08T20:20:19.662Z,80.56
2017-11-08T20:22:47.181Z,80.68
2017-11-08T20:25:14.712Z,79.88
2017-11-08T20:27:42.201Z,79.47
2017-11-08T20:30:09.751Z,79.75
2017-11-08T20:32:37.394Z,79.83
2017-11-08T20:35:04.882Z,80.08
2017-11-08T20:37:32.394Z,80.35
2017-11-08T20:39:59.915Z,80.01
2017-11-08T20:42:27.409Z,80.11
2017-11-08T20:44:54.935Z,80.51
2017-11-08T20:47:22.473Z,80.98
2017-11-08T20:49:49.972Z,80.56
2017-11-08T20:52:17.513Z,81.16
2017-11-08T20:54:45.085Z,80.95
2017-11-08T20:57:12.577Z,80.49
2017-11-08T20:59:40.077Z,80.56
2017-11-08T21:02:07.589Z,80.82
2017-11-08T21:04:35.076Z,80.66
2017-11-08T21:07:02.602Z,80.54
2017-11-08T21:09:30.115Z,79.77
2017-11-08T21:11:57.654Z,80.11
2017-11-08T21:14:25.147Z,80.38
2017-11-08T21:16:52.655Z,81.21
2017-11-08T21:19:20.369Z,80.82
2017-11-08T21:21:47.873Z,80.90
2017-11-08T21:24:15.367Z,80.93
2017-11-08T21:26:42.945Z,80.71
2017-11-08T21:29:10.481Z,80.99
2017-11-08T21:31:38.054Z,81.24
2017-11-08T21:34:05.545Z,81.24
2017-11-08T21:36:33.167Z,81.36
2017-11-08T21:39:00.655Z,81.60
2017-11-08T21:41:28.147Z,81.46
2017-11-08T21:43:55.677Z,81.00
2017-11-08T21:46:23.205Z,80.84
2017-11-08T21:48:51.152Z,81.13
2017-11-08T21:51:18.669Z,81.28
2017-11-08T21:53:46.223Z,80.94
2017-11-08T21:56:13.724Z,81.01
2017-11-08T21:58:41.215Z,81.43
2017-11-08T22:01:08.734Z,81.69
2017-11-08T22:03:36.227Z,82.00
2017-11-08T22:06:03.783Z,81.68
2017-11-08T22:08:31.341Z,81.62
2017-11-08T22:10:58.835Z,81.59
2017-11-08T22:13:26.367Z,81.42
2017-11-08T22:15:53.853Z,81.63
2017-11-08T22:18:21.340Z,81.84
2017-11-08T22:20:49.742Z,81.96
2017-11-08T22:23:17.241Z,82.32
2017-11-08T22:25:44.778Z,81.95
2017-11-08T22:28:12.417Z,81.16
2017-11-08T22:30:39.911Z,81.20
2017-11-08T22:33:07.467Z,81.53
2017-11-08T22:35:35.084Z,81.45
2017-11-08T22:38:02.576Z,81.51
2017-11-08T22:40:30.069Z,82.01
2017-11-08T22:42:57.613Z,82.14
2017-11-08T22:45:25.105Z,82.10
2017-11-08T22:47:52.591Z,81.64
2017-11-08T22:50:20.137Z,81.82
2017-11-08T22:52:47.709Z,81.12
2017-11-08T22:55:15.270Z,81.15
2017-11-08T22:57:42.798Z,81.52
2017-11-08T23:00:10.302Z,81.50
2017-11-08T23:02:37.794Z,81.26
2017-11-08T23:05:05.416Z,81.87
2017-11-08T23:07:32.969Z,82.44
2017-11-08T23:10:00.453Z,82.33
2017-11-08T23:12:27.995Z,82.11
2017-11-08T23:14:55.533Z,81.91
2017-11-08T23:17:23.033Z,81.92
2017-11-08T23:19:50.757Z,81.96
2017-11-08T23:22:18.251Z,82.15
2017-11-08T23:24:45.746Z,81.84
2017-11-08T23:27:13.272Z,81.75
2017-11-08T23:29:40.761Z,82.07
2017-11-08T23:32:08.257Z,81.94
2017-11-08T23:34:35.804Z,82.18
2017-11-08T23:37:03.369Z,82.27
2017-11-08T23:39:30.926Z,81.70
2017-11-08T23:41:58.445Z,82.10
2017-11-08T23:44:26.045Z,82.05
2017-11-08T23:46:53.540Z,81.91
2017-11-08T23:49:21.073Z,81.97
2017-11-08T23:51:48.613Z,82.06
2017-11-08T23:54:16.176Z,81.72
2017-11-08T23:56:43.721Z,81.72
2017-11-08T23:59:16.833Z,82.01
